Data for 10/04/2006

Time Sea-Level Adjusted Pressure Absolute Pressure Temperature Relative Humidity Dew Point   
(mb) (inHg) (mb) (inHg) (C) (F) (%) (C) (F)
00:05 1023 30.21 853 25.19 6.7 44.1 91 5.4 41.7
00:10 1023 30.21 853 25.19 6.6 44 91 5.3 41.6
00:15 1023 30.21 853 25.19 6.6 43.9 91 5.3 41.6
00:20 1024 30.24 853 25.19 6.6 43.9 91 5.3 41.5
00:25 1024 30.24 853 25.19 6.5 43.7 92 5.3 41.5
00:30 1024 30.24 853 25.19 6.5 43.8 92 5.3 41.5
00:35 1023 30.21 853 25.19 6.5 43.7 92 5.3 41.5
00:40 1024 30.24 853 25.19 6.5 43.7 91 5.2 41.3
00:45 1024 30.24 853 25.19 6.5 43.7 91 5.1 41.2
00:50 1024 30.24 853 25.19 6.5 43.6 91 5.1 41.2
00:55 1024 30.24 853 25.19 6.4 43.6 91 5 41
01:00 1024 30.24 853 25.19 6.4 43.6 91 5 41.1
01:05 1024 30.24 853 25.19 6.4 43.5 91 5 41.1
01:10 1024 30.24 853 25.19 6.4 43.4 91 4.9 40.9
01:15 1024 30.24 853 25.19 6.4 43.5 90 4.9 40.9
01:20 1024 30.24 853 25.19 6.5 43.6 90 4.9 40.8
01:25 1024 30.24 853 25.19 6.6 43.9 88 4.9 40.8
01:30 1024 30.24 853 25.19 6.7 44.1 88 4.8 40.7
01:35 1023 30.21 853 25.19 6.9 44.4 87 4.8 40.7
01:40 1023 30.21 853 25.19 7.1 44.8 86 5 40.9
01:45 1023 30.21 853 25.19 7 44.6 87 5 41
01:50 1023 30.21 853 25.19 7 44.6 86 4.8 40.7
01:55 1023 30.21 853 25.19 7.1 44.9 85 4.9 40.7
02:00 1023 30.21 853 25.19 7.2 45 85 4.9 40.8
02:05 1023 30.21 853 25.19 7.3 45.1 85 4.8 40.7
02:10 1023 30.21 853 25.19 7.1 44.9 85 4.8 40.7
02:15 1023 30.21 853 25.19 7.1 44.8 86 4.9 40.8
02:20 1023 30.21 853 25.19 7.2 44.9 85 4.9 40.8
02:25 1023 30.21 852 25.16 7.2 45 85 4.9 40.8
02:30 1023 30.21 852 25.16 7.2 45 84 4.7 40.5
02:35 1023 30.21 852 25.16 7.3 45.1 84 4.8 40.6
02:40 1023 30.21 852 25.16 7.2 45 85 4.9 40.8
02:45 1023 30.21 852 25.16 7.2 45 85 4.8 40.6
02:50 1023 30.21 852 25.16 7.1 44.8 85 4.8 40.6
02:55 1023 30.21 852 25.16 7.1 44.7 85 4.7 40.4
03:00 1023 30.21 852 25.16 7.1 44.7 85 4.7 40.5
03:05 1023 30.21 852 25.16 7 44.6 86 4.7 40.5
03:10 1023 30.21 852 25.16 6.9 44.3 86 4.7 40.4
03:15 1023 30.21 852 25.16 6.8 44.3 85 4.5 40.2
03:20 1023 30.21 852 25.16 6.8 44.3 86 4.7 40.4
03:25 1023 30.21 852 25.16 6.6 44 87 4.6 40.3
03:30 1023 30.21 852 25.16 6.5 43.7 87 4.5 40.2
03:35 1023 30.21 852 25.16 6.5 43.7 87 4.5 40.1
03:40 1023 30.21 852 25.16 6.5 43.8 86 4.4 40
03:45 1023 30.21 852 25.16 6.6 43.8 87 4.5 40.1
03:50 1023 30.21 852 25.16 6.6 43.8 86 4.4 40
03:55 1023 30.21 852 25.16 6.6 43.8 87 4.5 40.2
04:00 1023 30.21 852 25.16 6.4 43.6 87 4.4 39.9
04:05 1023 30.21 852 25.16 6.5 43.7 87 4.4 39.9
04:10 1023 30.21 852 25.16 6.5 43.7 87 4.4 39.9
04:15 1023 30.21 852 25.16 6.5 43.7 86 4.3 39.8
04:20 1023 30.21 852 25.16 6.6 43.8 86 4.4 39.9
04:25 1023 30.21 852 25.16 6.6 43.9 86 4.4 39.9
04:30 1023 30.21 852 25.16 6.6 43.9 86 4.4 39.9
04:35 1023 30.21 852 25.16 6.6 44 85 4.3 39.8
04:40 1023 30.21 852 25.16 6.7 44 85 4.3 39.7
04:45 1023 30.21 852 25.16 6.7 44.1 85 4.4 39.8
04:50 1023 30.21 852 25.16 6.6 43.9 85 4.3 39.7
04:55 1023 30.21 852 25.16 6.6 43.9 85 4.3 39.8
05:00 1023 30.21 852 25.16 6.6 43.8 85 4.3 39.7
05:05 1023 30.21 852 25.16 6.6 43.8 85 4.3 39.7
05:10 1023 30.21 852 25.16 6.5 43.8 85 4.2 39.6
05:15 1023 30.21 852 25.16 6.5 43.8 85 4.2 39.6
05:20 1023 30.21 852 25.16 6.6 43.9 85 4.2 39.5
05:25 1023 30.21 852 25.16 6.6 43.8 84 4.1 39.4
05:30 1023 30.21 852 25.16 6.7 44 84 4.2 39.5
05:35 1023 30.21 852 25.16 6.7 44 84 4.2 39.5
05:40 1023 30.21 852 25.16 6.6 43.9 85 4.2 39.6
05:45 1023 30.21 852 25.16 6.6 43.9 84 4.1 39.3
05:50 1023 30.21 852 25.16 6.6 43.9 84 4.1 39.5
05:55 1023 30.21 852 25.16 6.6 43.9 84 4.1 39.5
06:00 1023 30.21 852 25.16 6.6 43.9 84 4.1 39.4
06:05 1023 30.21 852 25.16 6.6 43.9 84 4.1 39.4
06:10 1023 30.21 852 25.16 6.6 43.9 84 4.1 39.3
06:15 1023 30.21 852 25.16 6.6 43.8 84 4 39.3
06:20 1023 30.21 852 25.16 6.5 43.8 84 4 39.3
06:25 1023 30.21 852 25.16 6.5 43.7 85 4.1 39.4
06:30 1023 30.21 852 25.16 6.4 43.5 85 4.1 39.4
06:35 1023 30.21 852 25.16 6.3 43.4 86 4.2 39.5
06:40 1023 30.21 852 25.16 6.3 43.3 86 4.1 39.4
06:45 1023 30.21 852 25.16 6.3 43.3 86 4.1 39.4
06:50 1023 30.21 852 25.16 6.3 43.4 85 4 39.2
06:55 1023 30.21 852 25.16 6.3 43.4 85 4 39.2
07:00 1023 30.21 852 25.16 6.3 43.4 85 4 39.2
07:05 1023 30.21 852 25.16 6.3 43.3 85 3.9 39.1
07:10 1023 30.21 852 25.16 6.2 43.1 86 4 39.2
07:15 1023 30.21 852 25.16 6.2 43.2 86 4 39.3
07:20 1023 30.21 852 25.16 6.2 43.2 85 3.9 39.1
07:25 1023 30.21 852 25.16 6.1 43 86 3.9 39
07:30 1023 30.21 852 25.16 6.1 43 86 4 39.2
07:35 1023 30.21 852 25.16 6 42.9 87 4 39.2
07:40 1023 30.21 852 25.16 6.1 43 87 4 39.3
07:45 1023 30.21 852 25.16 6.1 43.1 87 4.1 39.3
07:50 1023 30.21 852 25.16 6.1 43 87 4.1 39.4
07:55 1023 30.21 852 25.16 6.2 43.1 86 4 39.2
08:00 1023 30.21 852 25.16 6.2 43.2 86 4 39.3
08:05 1023 30.21 852 25.16 6.2 43.2 86 4 39.2
08:10 1023 30.21 852 25.16 6.3 43.3 86 4 39.2
08:15 1023 30.21 852 25.16 6.2 43.2 86 4 39.2
08:20 1023 30.21 852 25.16 6.2 43.1 86 4.1 39.3
08:25 1023 30.21 852 25.16 6.2 43.2 86 4 39.3
08:30 1023 30.21 852 25.16 6.3 43.3 85 4 39.2
08:35 1023 30.21 852 25.16 6.3 43.4 86 4.1 39.4
08:40 1023 30.21 852 25.16 6.3 43.3 86 4.1 39.3
08:45 1023 30.21 852 25.16 6.4 43.4 85 4.1 39.4
08:50 1023 30.21 852 25.16 6.3 43.4 85 4.1 39.3
08:55 1023 30.21 852 25.16 6.4 43.5 85 4.1 39.4
09:00 1023 30.21 852 25.16 6.5 43.6 85 4.1 39.4
09:05 1023 30.21 852 25.16 6.5 43.8 84 4.1 39.4
09:10 1023 30.21 852 25.16 6.7 44 83 4.1 39.3
09:15 1023 30.21 852 25.16 6.8 44.3 83 4.1 39.5
09:20 1023 30.21 852 25.16 6.9 44.4 82 4 39.2
09:25 1023 30.21 852 25.16 7.1 44.7 81 4 39.2
09:30 1023 30.21 852 25.16 7.3 45.2 79 4 39.2
09:35 1023 30.21 852 25.16 7.5 45.4 79 4 39.2
09:40 1023 30.21 852 25.16 7.8 46 78 4.2 39.5
09:45 1023 30.21 852 25.16 8 46.4 77 4.2 39.6
09:50 1023 30.21 852 25.16 8.3 47 75 4.2 39.5
09:55 1023 30.21 852 25.16 8.4 47.1 76 4.4 39.9
10:00 1023 30.21 852 25.16 8.2 46.8 76 4.2 39.6
10:05 1023 30.21 852 25.16 8.3 47 76 4.3 39.7
10:10 1023 30.21 852 25.16 8.3 46.9 77 4.4 40
10:15 1023 30.21 852 25.16 8.2 46.8 77 4.4 39.9
10:20 1023 30.21 852 25.16 8.4 47.1 76 4.5 40
10:25 1023 30.21 852 25.16 8.4 47.2 77 4.6 40.2
10:30 1023 30.21 852 25.16 8.2 46.7 78 4.5 40.2
10:35 1023 30.21 852 25.16 8 46.3 79 4.5 40.1
10:40 1023 30.21 852 25.16 8 46.4 77 4.2 39.6
10:45 1023 30.21 852 25.16 8.1 46.6 77 4.4 39.9
10:50 1023 30.21 852 25.16 8.1 46.5 79 4.6 40.2
10:55 1023 30.21 853 25.19 8 46.3 78 4.4 39.9
11:00 1023 30.21 853 25.19 8.5 47.3 76 4.6 40.3
11:05 1023 30.21 852 25.16 8.5 47.2 76 4.5 40.1
11:10 1023 30.21 852 25.16 8.9 47.9 74 4.5 40.1
11:15 1023 30.21 852 25.16 9.5 49.1 71 4.6 40.2
11:20 1023 30.21 852 25.16 10 49.9 69 4.6 40.3
11:25 1023 30.21 852 25.16 9.7 49.5 71 4.8 40.7
11:30 1023 30.21 852 25.16 9.7 49.5 72 4.9 40.7
11:35 1023 30.21 852 25.16 10.1 50.2 68 4.6 40.3
11:40 1023 30.21 852 25.16 10.7 51.2 67 4.8 40.7
11:45 1023 30.21 852 25.16 11 51.7 66 4.9 40.8
11:50 1023 30.21 852 25.16 11.9 53.3 62 5 40.9
11:55 1023 30.21 852 25.16 12.3 54.2 61 5 41
12:00 1023 30.21 852 25.16 12.7 54.8 59 4.9 40.7
12:05 1023 30.21 852 25.16 12.4 54.3 60 4.9 40.8
12:10 1023 30.21 852 25.16 12.1 53.8 64 5.5 41.9
12:15 1023 30.21 852 25.16 11.7 53 64 5.2 41.3
12:20 1023 30.21 852 25.16 12 53.6 61 4.8 40.6
12:25 1023 30.21 852 25.16 12.6 54.6 59 4.8 40.6
12:30 1023 30.21 852 25.16 12.8 55 60 5.4 41.6
12:35 1023 30.21 852 25.16 12.5 54.6 60 5 41
12:40 1023 30.21 852 25.16 13.7 56.7 56 5.1 41.2
12:45 1023 30.21 852 25.16 13.6 56.4 57 5.3 41.6
12:50 1023 30.21 852 25.16 12.7 54.9 61 5.5 41.9
12:55 1023 30.21 852 25.16 12.7 54.8 59 4.8 40.7
13:00 1023 30.21 852 25.16 13.9 57 54 4.8 40.7
13:05 1023 30.21 852 25.16 13.6 56.5 57 5.3 41.5
13:10 1023 30.21 852 25.16 13.7 56.6 57 5.3 41.5
13:15 1023 30.21 852 25.16 13.3 56 58 5.3 41.5
13:20 1023 30.21 852 25.16 14.2 57.6 53 4.9 40.7
13:25 1023 30.21 852 25.16 14.9 58.8 52 5.2 41.3
13:30 1023 30.21 852 25.16 14.2 57.5 56 5.5 42
13:35 1023 30.21 852 25.16 13.7 56.7 56 5.2 41.4
13:40 1023 30.21 852 25.16 15 58.9 51 4.9 40.8
13:45 1022 30.18 852 25.16 15.8 60.5 51 5.7 42.3
13:50 1022 30.18 852 25.16 15.9 60.6 50 5.7 42.3
13:55 1022 30.18 852 25.16 15.9 60.7 50 5.8 42.4
14:00 1022 30.18 852 25.16 15.6 60.2 54 6.4 43.5
14:05 1022 30.18 851 25.13 14.9 58.8 55 5.9 42.6
14:10 1022 30.18 851 25.13 15.7 60.3 50 5.3 41.5
14:15 1022 30.18 851 25.13 17.4 63.3 45 5.5 42
14:20 1022 30.18 851 25.13 16.8 62.3 51 6.6 44
14:25 1022 30.18 851 25.13 15.1 59.1 54 5.8 42.5
14:30 1022 30.18 851 25.13 15.2 59.4 51 5.1 41.2
14:35 1022 30.18 851 25.13 15.5 59.9 51 5.6 42.2
14:40 1022 30.18 851 25.13 16.1 60.9 48 5.2 41.3
14:45 1021 30.15 851 25.13 16.2 61.2 49 5.5 41.9
14:50 1021 30.15 850 25.1 16.5 61.6 47 5.1 41.3
14:55 1021 30.15 850 25.1 16.4 61.6 49 5.7 42.2
15:00 1021 30.15 850 25.1 16.5 61.7 47 5.1 41.2
15:05 1021 30.15 850 25.1 17.1 62.8 46 5.7 42.2
15:10 1021 30.15 850 25.1 16.9 62.4 47 5.8 42.4
15:15 1021 30.15 850 25.1 16.7 62.1 51 6.8 44.2
15:20 1021 30.15 850 25.1 17 62.6 48 6.2 43.1
15:25 1021 30.15 850 25.1 16.7 62 51 6.7 44.1
15:30 1021 30.15 850 25.1 17.1 62.7 50 6.7 44.1
15:35 1021 30.15 850 25.1 17.2 63 49 6.4 43.6
15:40 1021 30.15 850 25.1 17.9 64.2 49 7.1 44.7
15:45 1021 30.15 850 25.1 17.5 63.5 51 7.3 45.1
15:50 1021 30.15 850 25.1 17.5 63.4 48 6.5 43.7
15:55 1021 30.15 850 25.1 17.8 64 48 6.6 43.9
16:00 1021 30.15 850 25.1 17.9 64.2 48 6.9 44.4
16:05 1021 30.15 850 25.1 17.8 64.1 49 6.9 44.5
16:10 1021 30.15 850 25.1 17.7 63.9 47 6.5 43.6
16:15 1021 30.15 850 25.1 18 64.3 47 6.6 43.8
16:20 1021 30.15 850 25.1 18.1 64.7 47 6.7 44.1
16:25 1021 30.15 850 25.1 18.9 66.1 44 6.5 43.7
16:30 1020 30.12 850 25.1 19.2 66.6 44 6.8 44.3
16:35 1020 30.12 850 25.1 19.1 66.4 43 6.3 43.4
16:40 1020 30.12 850 25.1 19.1 66.3 44 6.6 43.8
16:45 1020 30.12 850 25.1 19.3 66.7 41 5.7 42.3
16:50 1020 30.12 850 25.1 18.9 66 41 5.4 41.7
16:55 1020 30.12 849 25.07 19 66.3 42 5.9 42.6
17:00 1020 30.12 849 25.07 18.5 65.3 45 6.4 43.5
17:05 1020 30.12 849 25.07 17.3 63.2 49 6.6 43.9
17:10 1020 30.12 849 25.07 16.5 61.6 52 6.6 43.9
17:15 1020 30.12 849 25.07 16.2 61.1 52 6.5 43.7
17:20 1020 30.12 850 25.1 15.8 60.5 54 6.5 43.7
17:25 1020 30.12 850 25.1 15.6 60.1 54 6.4 43.5
17:30 1020 30.12 849 25.07 15.5 60 55 6.5 43.7
17:35 1020 30.12 849 25.07 15.4 59.7 55 6.6 43.9
17:40 1020 30.12 850 25.1 14.9 58.7 58 6.7 44.1
17:45 1020 30.12 850 25.1 14.4 57.8 60 6.7 44
17:50 1020 30.12 850 25.1 14 57.2 61 6.8 44.2
17:55 1020 30.12 850 25.1 13.7 56.7 62 6.8 44.2
18:00 1020 30.12 850 25.1 13.4 56.1 64 6.7 44
18:05 1021 30.15 850 25.1 13.1 55.5 65 6.6 43.9
18:10 1021 30.15 850 25.1 12.8 55.1 65 6.6 43.8
18:15 1021 30.15 850 25.1 12.6 54.6 66 6.5 43.8
18:20 1020 30.12 850 25.1 12.4 54.4 67 6.5 43.7
18:25 1020 30.12 850 25.1 12.3 54.1 68 6.5 43.7
18:30 1020 30.12 850 25.1 12.1 53.9 68 6.5 43.7
18:35 1020 30.12 850 25.1 12 53.6 69 6.4 43.6
18:40 1020 30.12 850 25.1 11.9 53.4 69 6.5 43.7
18:45 1020 30.12 850 25.1 11.8 53.2 70 6.5 43.6
18:50 1020 30.12 850 25.1 11.7 53 71 6.6 43.8
18:55 1020 30.12 850 25.1 11.5 52.7 71 6.4 43.5
19:00 1020 30.12 850 25.1 11.4 52.4 70 6.2 43.1
19:05 1020 30.12 850 25.1 11.3 52.3 70 6.1 42.9
19:10 1020 30.12 850 25.1 11.2 52.1 70 5.9 42.6
19:15 1020 30.12 850 25.1 11 51.8 70 5.8 42.4
19:20 1020 30.12 850 25.1 11 51.8 69 5.6 42.1
19:25 1020 30.12 850 25.1 11.1 52 69 5.7 42.2
19:30 1021 30.15 850 25.1 11 51.8 70 5.8 42.4
19:35 1021 30.15 850 25.1 10.9 51.6 70 5.7 42.3
19:40 1021 30.15 850 25.1 10.8 51.5 71 5.7 42.3
19:45 1021 30.15 850 25.1 10.8 51.5 71 5.8 42.4
19:50 1021 30.15 850 25.1 10.8 51.4 71 5.9 42.5
19:55 1020 30.12 850 25.1 10.8 51.4 72 5.9 42.6
20:00 1020 30.12 850 25.1 10.7 51.3 72 6 42.7
20:05 1020 30.12 850 25.1 10.6 51.2 73 6.1 43
20:10 1020 30.12 849 25.07 10.4 50.8 75 6.2 43.1
20:15 1020 30.12 850 25.1 10.3 50.5 76 6.2 43.1
20:20 1020 30.12 850 25.1 10.3 50.6 75 6.1 43
20:25 1020 30.12 850 25.1 10.4 50.8 75 6.2 43.1
20:30 1020 30.12 850 25.1 10.4 50.8 75 6.3 43.4
20:35 1020 30.12 850 25.1 10.3 50.6 76 6.3 43.3
20:40 1021 30.15 850 25.1 10.2 50.4 76 6.2 43.2
20:45 1021 30.15 850 25.1 10.3 50.5 76 6.2 43.2
20:50 1021 30.15 850 25.1 10.2 50.4 77 6.4 43.4
20:55 1021 30.15 850 25.1 10.2 50.3 77 6.3 43.3
21:00 1021 30.15 850 25.1 10.2 50.4 77 6.3 43.4
21:05 1021 30.15 850 25.1 10.2 50.3 77 6.4 43.5
21:10 1021 30.15 850 25.1 10.1 50.1 78 6.4 43.6
21:15 1021 30.15 850 25.1 10 49.9 79 6.5 43.6
21:20 1021 30.15 850 25.1 9.9 49.8 79 6.5 43.7
21:25 1021 30.15 850 25.1 9.9 49.7 80 6.5 43.7
21:30 1021 30.15 850 25.1 9.9 49.7 80 6.5 43.8
21:35 1021 30.15 850 25.1 9.8 49.7 80 6.5 43.7
21:40 1021 30.15 850 25.1 9.8 49.7 80 6.6 43.9
21:45 1021 30.15 850 25.1 9.8 49.6 80 6.5 43.7
21:50 1021 30.15 850 25.1 9.8 49.6 80 6.5 43.8
21:55 1021 30.15 850 25.1 9.8 49.6 80 6.5 43.8
22:00 1021 30.15 850 25.1 9.8 49.7 80 6.5 43.7
22:05 1021 30.15 850 25.1 9.9 49.7 79 6.5 43.6
22:10 1021 30.15 850 25.1 9.8 49.7 80 6.5 43.6
22:15 1021 30.15 851 25.13 9.8 49.6 79 6.3 43.4
22:20 1021 30.15 850 25.1 9.8 49.7 79 6.4 43.5
22:25 1021 30.15 850 25.1 9.8 49.7 79 6.4 43.5
22:30 1021 30.15 851 25.13 9.8 49.7 79 6.4 43.6
22:35 1021 30.15 851 25.13 9.9 49.8 80 6.6 43.9
22:40 1022 30.18 851 25.13 9.9 49.9 80 6.6 43.9
22:45 1022 30.18 851 25.13 10 50 80 6.7 44
22:50 1022 30.18 851 25.13 10 50 80 6.7 44.1
22:55 1022 30.18 852 25.16 10.1 50.2 79 6.7 44
23:00 1022 30.18 852 25.16 10.1 50.2 79 6.7 44.1
23:05 1022 30.18 851 25.13 10 50 80 6.8 44.3
23:10 1022 30.18 851 25.13 9.9 49.7 81 6.8 44.2
23:15 1022 30.18 851 25.13 9.9 49.7 80 6.6 43.9
23:20 1022 30.18 852 25.16 9.9 49.7 79 6.4 43.6
23:25 1023 30.21 852 25.16 10 50 79 6.5 43.7
23:30 1023 30.21 852 25.16 9.7 49.5 81 6.6 43.9
23:35 1023 30.21 852 25.16 9.6 49.2 82 6.6 43.9
23:40 1023 30.21 852 25.16 9.4 48.9 82 6.5 43.8
23:45 1023 30.21 852 25.16 9.3 48.8 83 6.5 43.8
23:50 1023 30.21 852 25.16 9.3 48.7 82 6.4 43.5
23:55 1023 30.21 852 25.16 9.4 48.9 82 6.4 43.5
24:00 1023 30.21 852 25.16 9.2 48.6 83 6.5 43.6